• Join FlightAware (Why Join?)
  • Login
  • US Flag 
06:23AM EDT


 

Airport Tracker/Info


-or-


 

Live Flight TrackerFlight Track Log ✈ UAL4663 ✈ 22-Apr-2013 ✈ KEWR - KRDU

Flight Track Log - Related Links

Times and Time Zones

All times are in EDT time to prevent confusion due to time zone crossing. See the UAL4663 flight status page for this flight to view local times or setup timezone preferences in your user account.

Time Position Orientation Groundspeed Altitude Reporting Facility
EDT Latitude Longitude Course Direction KTS MPH feet Rate Location/Type
07:04PM 40.7369 -74.1261 201° Southwest 195 224 2,500  Level New York Center
07:05PM 40.7664 -74.1850 303° West 244 281 5,000 2,280 Climbing New York Center
07:06PM 40.7011 -74.2147 199° South 251 289 7,100 2,160 Climbing New York Center
07:07PM 40.3289 -74.1644 159° South  Level FlightAware Approximate
07:07PM 40.6514 -74.2722 221° Southwest 264 304 9,300  Level New York Center
07:08PM 40.2350 -74.1717 194° South  Level FlightAware Approximate
07:08PM 40.5872 -74.3292 214° Southwest 292 336 11,300  Level New York Center
07:09PM 40.1404 -74.2048 201° Southwest  Level FlightAware Approximate
07:09PM 40.5178 -74.2792 151° Southeast 320 368 12,500  Level New York Center
07:10PM 40.4167 -74.2167 155° Southeast 321 369 14,800 1,680 Climbing New York TRACON
07:11PM 40.3517 -74.1861 160° South 353 406 16,000 1,140 Climbing New York Center
07:12PM 40.2603 -74.1789 177° South 335 386 16,900 480 Climbing New York Center
07:13PM 40.1617 -74.2067 192° South 354 407 17,000  Climbing New York Center
07:13PM 40.1119 -74.2189 191° South 427 491 16,900 720 Descending Washington Center
07:14PM 40.0061 -74.2561 195° South 408 470 18,100 1,380 Climbing Washington Center
07:15PM 39.9236 -74.3336 216° Southwest 371 427 19,700 1,560 Climbing Washington Center
07:16PM 39.8411 -74.4081 215° Southwest 364 419 21,300 1,620 Climbing Washington Center
07:17PM 39.7711 -74.4981 225° Southwest 364 419 23,000 1,500 Climbing Washington Center
07:18PM 39.7153 -74.5664 223° Southwest 357 411 24,300 1,380 Climbing Washington Center
07:19PM 39.6433 -74.6592 225° Southwest 343 395 25,800 840 Climbing Washington Center
07:20PM 39.5772 -74.7461 225° Southwest 338 389 26,000 60 Climbing Washington Center
07:21PM 39.5092 -74.8411 227° Southwest 345 397 26,000  Level Washington Center
07:22PM 39.4344 -74.9358 224° Southwest 359 413 26,000  Level Washington Center
07:23PM 39.3600 -75.0358 226° Southwest 373 429 26,000  Level Washington Center
07:24PM 39.2875 -75.1331 226° Southwest 383 441 26,000  Level Washington Center
07:25PM 39.2108 -75.2300 224° Southwest 383 441 26,000  Level Washington Center
07:26PM 39.1381 -75.3239 225° Southwest 383 441 26,000  Level Washington Center
07:27PM 39.0633 -75.4258 227° Southwest 383 441 26,000  Level Washington Center
07:28PM 38.9819 -75.5194 222° Southwest 383 441 26,000  Level Washington Center
07:29PM 38.9092 -75.6183 227° Southwest 383 441 26,000  Level Washington Center
07:30PM 38.8589 -75.7436 243° Southwest 389 448 26,000  Level Washington Center
07:31PM 38.8169 -75.8767 248° West 394 453 26,000  Level Washington Center
07:32PM 38.7458 -75.9775 228° Southwest 387 445 26,000  Level Washington Center
07:33PM 38.6561 -76.0594 216° Southwest 387 445 26,000  Level Washington Center
07:34PM 38.5661 -76.1439 216° Southwest 394 453 26,000  Level Washington Center
07:35PM 38.4675 -76.2386 217° Southwest 410 472 26,000  Level Washington Center
07:36PM 38.3858 -76.3122 215° Southwest 410 472 26,000  Level Washington Center
07:37PM 38.2914 -76.3986 216° Southwest 396 456 26,000  Level Washington Center
07:38PM 38.2156 -76.5008 227° Southwest 396 456 26,000  Level Washington Center
07:39PM 38.1439 -76.6031 228° Southwest 396 456 26,000  Level Washington Center
07:40PM 38.0681 -76.7047 227° Southwest 401 461 26,000  Level Washington Center
07:41PM 37.9939 -76.8092 228° Southwest 401 461 26,000 -300 Level Washington Center
07:42PM 37.8953 -76.8681 205° Southwest 394 453 25,400 -1,080 Descending Washington Center
07:43PM 37.7925 -76.9161 200° South 394 453 23,900 -1,500 Descending Washington Center
07:44PM 37.6878 -76.9617 199° South 394 453 22,400 -960 Descending Washington Center
07:45PM 37.5850 -77.0044 198° South 394 453 22,000 -240 Descending Washington Center
07:46PM 37.4803 -77.0522 200° South 399 459 22,000  Level Washington Center
07:47PM 37.3797 -77.0947 199° South 399 459 22,000  Level Washington Center
07:48PM 37.2956 -77.1425 204° Southwest 356 410 22,000  Level Washington Center
07:50PM 37.1831 -77.1998 202° Southwest  Level FlightAware Approximate
07:50PM 37.1356 -77.2489 202° Southwest 346 398 22,000  Level Washington Center
07:51PM 37.0533 -77.3094 210° Southwest 341 392 22,000  Level Washington Center
07:52PM 36.9711 -77.3700 210° Southwest 341 392 22,000  Level Washington Center
07:53PM 36.8931 -77.4281 211° Southwest 341 392 22,000 -600 Level Washington Center
07:54PM 36.8128 -77.4883 211° Southwest 341 392 20,800 -1,260 Descending Washington Center
07:55PM 36.7283 -77.5511 211° Southwest 346 398 19,500 -1,200 Descending Washington Center
07:56PM 36.6439 -77.6136 211° Southwest 346 398 18,500 -900 Descending Washington Center
07:57PM 36.5594 -77.6761 211° Southwest 351 404 17,700 -900 Descending Washington Center
07:58PM 36.4786 -77.7644 221° Southwest 351 404 16,800 -1,020 Descending Washington Center
07:59PM 36.4144 -77.8503 227° Southwest 351 404 15,700 -1,140 Descending Washington Center
08:00PM 36.3631 -77.9158 226° Southwest 345 397 14,900 -1,140 Descending Washington Center
08:00PM 36.3481 -77.9361 227° Southwest 351 404 14,600 -720 Descending Washington Center
08:01PM 36.2836 -78.0217 227° Southwest 346 398 14,000 -960 Descending Washington Center
08:02PM 36.2172 -78.1100 227° Southwest 346 398 12,800 -1,440 Descending Washington Center
08:03PM 36.1547 -78.1978 229° Southwest 346 398 11,200 -1,500 Descending Washington Center
08:04PM 36.1153 -78.2867 241° Southwest 334 384 9,800 -1,320 Descending Washington Center
08:05PM 36.0717 -78.3750 239° Southwest 297 342 8,600 -900 Descending Washington Center
08:06PM 36.0278 -78.4661 239° Southwest 274 315 8,000 -300 Descending Washington Center
08:07PM 35.9756 -78.5461 231° Southwest 273 314 8,000  Level Washington Center
08:08PM 35.9325 -78.5986 225° Southwest 281 323 8,000  Level Washington Center
08:09PM 35.8728 -78.6553 218° Southwest 281 323 8,000  Level Washington Center
08:10PM 35.8472 -78.6747 212° Southwest 265 305 8,000 -900 Level Washington Center
08:11PM 35.7933 -78.7392 224° Southwest 269 310 6,800 -1,320 Descending Washington Center
08:12PM 35.7394 -78.8086 226° Southwest 278 320 5,400 -1,380 Descending Washington Center
08:13PM 35.7142 -78.8894 249° West 253 291 3,900 -1,440 Descending Washington Center
08:14PM 35.7617 -78.9094 341° North 189 217 2,200 -900 Descending Washington Center
08:15PM 35.8039 -78.8908 20° North 163 188 2,100 -360 Descending Washington Center
08:16PM 35.8297 -78.8583 46° Northeast 117 135 1,600 -600 Descending Washington Center
08:17PM 35.8494 -78.8311 48° Northeast 123 142 1,000 -720 Descending Washington Center